Terminal Aerodrome Forecast
Issued by NWS Portland, OR

Current Version | Previous Version | Text Only | Print | Product List | Glossary On
Versions: 1 2 3 4 5 6 7 8 9 10 11 12 13 14
000
FTUS46 KPQR 271142
TAFTTD
TAF
KTTD 271142Z 2712/2812 VRB03KT P6SM SKC
     FM271400 21005KT P6SM SCT015
     FM271700 25005KT P6SM SCT250
     FM280200 28007KT P6SM SCT100 SCT250
     FM281000 VRB03KT P6SM SCT025=

USA.gov is the U.S. government's official web portal to all federal, state and local government web resources and services.